createdAt,value
2018-03-11T00:01:54.948Z,99970.73
2018-03-11T00:04:23.236Z,99972.60
2018-03-11T00:06:51.564Z,99968.00
2018-03-11T00:09:19.854Z,99969.28
2018-03-11T00:11:48.152Z,99966.84
2018-03-11T00:14:17.220Z,99965.65
2018-03-11T00:16:45.538Z,99957.16
2018-03-11T00:19:14.624Z,99959.20
2018-03-11T00:21:42.950Z,99957.89
2018-03-11T00:24:11.297Z,99949.58
2018-03-11T00:26:40.379Z,99958.92
2018-03-11T00:29:08.678Z,99963.76
2018-03-11T00:31:37.754Z,99956.08
2018-03-11T00:34:06.060Z,99950.92
2018-03-11T00:36:35.150Z,99950.46
2018-03-11T00:39:03.460Z,99940.80
2018-03-11T00:41:31.753Z,99943.83
2018-03-11T00:44:00.054Z,99941.00
2018-03-11T00:46:28.346Z,99940.97
2018-03-11T00:48:56.665Z,99950.34
2018-03-11T00:51:25.730Z,99947.78
2018-03-11T00:53:54.031Z,99949.64
2018-03-11T00:56:22.329Z,99943.47
2018-03-11T00:58:51.389Z,99944.41
2018-03-11T01:01:19.690Z,99934.22
2018-03-11T01:03:48.006Z,99932.66
2018-03-11T01:06:17.096Z,99929.16
2018-03-11T01:08:46.162Z,99925.84
2018-03-11T01:11:14.460Z,99909.43
2018-03-11T01:13:42.760Z,99907.28
2018-03-11T01:16:11.826Z,99913.97
2018-03-11T01:18:40.127Z,99909.89
2018-03-11T01:21:08.435Z,99909.72
2018-03-11T01:23:36.748Z,99901.52
2018-03-11T01:26:05.042Z,99897.73
2018-03-11T01:28:33.336Z,99891.51
2018-03-11T01:31:01.630Z,99896.84
2018-03-11T01:33:29.929Z,99898.05
2018-03-11T01:35:58.988Z,99887.06
2018-03-11T01:38:27.295Z,99892.20
2018-03-11T01:40:55.618Z,99878.01
2018-03-11T01:43:23.916Z,99874.48
2018-03-11T01:45:52.288Z,99869.21
2018-03-11T01:48:20.604Z,99869.38
2018-03-11T01:50:48.900Z,99869.38
2018-03-11T01:53:17.212Z,99877.99
2018-03-11T01:55:46.869Z,99887.88
2018-03-11T01:58:15.160Z,99874.09
2018-03-11T02:00:43.464Z,99869.09
2018-03-11T02:03:12.542Z,99874.84
2018-03-11T02:05:40.839Z,99866.94
2018-03-11T02:08:09.992Z,99870.44
2018-03-11T02:10:38.306Z,99855.09
2018-03-11T02:13:06.614Z,99849.88
2018-03-11T02:15:34.904Z,99847.34
2018-03-11T02:18:03.970Z,99852.52
2018-03-11T02:20:32.276Z,99852.27
2018-03-11T02:23:00.570Z,99853.48
2018-03-11T02:25:29.632Z,99839.95
2018-03-11T02:27:57.936Z,99839.00
2018-03-11T02:30:26.263Z,99836.69
2018-03-11T02:32:54.573Z,99836.06
2018-03-11T02:35:22.881Z,99836.80
2018-03-11T02:37:51.189Z,99835.80
2018-03-11T02:40:19.506Z,99832.43
2018-03-11T02:42:48.658Z,99826.48
2018-03-11T02:45:17.721Z,99812.61
2018-03-11T02:47:46.029Z,99814.19
2018-03-11T02:50:14.351Z,99820.50
2018-03-11T02:52:42.653Z,99825.45
2018-03-11T02:55:11.034Z,99821.52
2018-03-11T02:57:39.345Z,99820.81
2018-03-11T03:00:07.662Z,99821.61
2018-03-11T03:02:36.744Z,99814.48
2018-03-11T03:05:05.807Z,99804.69
2018-03-11T03:07:34.102Z,99816.44
2018-03-11T03:10:02.409Z,99823.50
2018-03-11T03:12:31.486Z,99835.66
2018-03-11T03:14:59.802Z,99838.91
2018-03-11T03:17:28.863Z,99822.75
2018-03-11T03:19:57.186Z,99812.64
2018-03-11T03:22:25.497Z,99796.09
2018-03-11T03:24:54.565Z,99791.67
2018-03-11T03:27:23.641Z,99789.11
2018-03-11T03:29:51.953Z,99799.98
2018-03-11T03:32:20.253Z,99809.38
2018-03-11T03:34:48.567Z,99805.53
2018-03-11T03:37:16.865Z,99809.38
2018-03-11T03:39:45.159Z,99816.00
2018-03-11T03:42:14.233Z,99820.30
2018-03-11T03:44:42.529Z,99816.03
2018-03-11T03:47:10.848Z,99807.01
2018-03-11T03:49:39.144Z,99803.17
2018-03-11T03:52:08.457Z,99794.27
2018-03-11T03:54:36.749Z,99785.30
2018-03-11T03:57:05.041Z,99778.61
2018-03-11T03:59:33.340Z,99771.52
2018-03-11T04:02:01.653Z,99754.94
2018-03-11T04:04:30.726Z,99761.92
2018-03-11T04:06:59.025Z,99752.91
2018-03-11T04:09:28.185Z,99738.16
2018-03-11T04:11:56.523Z,99732.47
2018-03-11T04:14:24.833Z,99724.75
2018-03-11T04:16:53.142Z,99722.00
2018-03-11T04:19:21.466Z,99715.20
2018-03-11T04:21:49.769Z,99716.08
2018-03-11T04:24:18.066Z,99692.97
2018-03-11T04:26:46.374Z,99687.63
2018-03-11T04:29:14.669Z,99683.80
2018-03-11T04:31:42.960Z,99677.76
2018-03-11T04:34:12.037Z,99673.75
2018-03-11T04:36:40.359Z,99669.36
2018-03-11T04:39:08.723Z,99660.00
2018-03-11T04:41:37.817Z,99666.53
2018-03-11T04:44:06.887Z,99669.09
2018-03-11T04:46:35.192Z,99667.75
2018-03-11T04:49:03.741Z,99668.28
2018-03-11T04:51:32.047Z,99663.22
2018-03-11T04:54:00.349Z,99664.56
2018-03-11T04:56:29.403Z,99674.73
2018-03-11T04:58:57.716Z,99686.59
2018-03-11T05:01:26.023Z,99691.53
2018-03-11T05:03:55.097Z,99697.15
2018-03-11T05:06:23.395Z,99689.79
2018-03-11T05:08:52.467Z,99684.33
2018-03-11T05:11:20.767Z,99676.05
2018-03-11T05:13:49.067Z,99663.05
2018-03-11T05:16:18.117Z,99663.26
2018-03-11T05:18:46.425Z,99666.64
2018-03-11T05:21:14.975Z,99653.39
2018-03-11T05:23:43.429Z,99654.84
2018-03-11T05:26:11.711Z,99643.63
2018-03-11T05:28:40.005Z,99645.25
2018-03-11T05:31:08.299Z,99648.97
2018-03-11T05:33:36.623Z,99650.07
2018-03-11T05:36:04.954Z,99641.59
2018-03-11T05:38:33.257Z,99645.98
2018-03-11T05:41:01.567Z,99645.52
2018-03-11T05:43:29.877Z,99634.95
2018-03-11T05:45:58.939Z,99641.69
2018-03-11T05:48:27.237Z,99640.13
2018-03-11T05:50:55.542Z,99625.25
2018-03-11T05:53:23.964Z,99629.94
2018-03-11T05:55:52.980Z,99630.52
2018-03-11T05:58:21.283Z,99624.77
2018-03-11T06:00:49.590Z,99621.69
2018-03-11T06:03:17.891Z,99622.73
2018-03-11T06:05:46.243Z,99623.84
2018-03-11T06:08:15.395Z,99601.51
2018-03-11T06:10:43.717Z,99595.47
2018-03-11T06:13:12.785Z,99575.25
2018-03-11T06:15:41.079Z,99568.63
2018-03-11T06:18:09.381Z,99573.16
2018-03-11T06:20:38.450Z,99574.50
2018-03-11T06:23:06.731Z,99562.59
2018-03-11T06:25:35.047Z,99553.36
2018-03-11T06:28:04.117Z,99554.58
2018-03-11T06:30:32.431Z,99548.48
2018-03-11T06:33:01.489Z,99547.02
2018-03-11T06:35:29.795Z,99545.11
2018-03-11T06:37:58.097Z,99543.77
2018-03-11T06:40:27.159Z,99543.95
2018-03-11T06:42:55.485Z,99543.66
2018-03-11T06:45:23.845Z,99542.44
2018-03-11T06:47:52.906Z,99540.41
2018-03-11T06:50:21.203Z,99531.98
2018-03-11T06:52:49.507Z,99518.45
2018-03-11T06:55:17.819Z,99505.04
2018-03-11T06:57:46.135Z,99505.89
2018-03-11T07:00:14.448Z,99513.55
2018-03-11T07:02:42.753Z,99519.55
2018-03-11T07:05:11.068Z,99510.42
2018-03-11T07:07:39.358Z,99510.78
2018-03-11T07:10:07.655Z,99496.02
2018-03-11T07:12:35.959Z,99493.83
2018-03-11T07:15:04.964Z,99484.41
2018-03-11T07:17:34.047Z,99475.40
2018-03-11T07:20:02.350Z,99483.75
2018-03-11T07:22:31.434Z,99473.54
2018-03-11T07:24:59.744Z,99486.14
2018-03-11T07:27:28.058Z,99477.24
2018-03-11T07:29:56.348Z,99470.78
2018-03-11T07:32:24.672Z,99463.64
2018-03-11T07:34:53.728Z,99452.42
2018-03-11T07:37:22.026Z,99449.41
2018-03-11T07:39:50.317Z,99447.25
2018-03-11T07:42:18.606Z,99441.52
2018-03-11T07:44:46.914Z,99438.63
2018-03-11T07:47:15.219Z,99433.70
2018-03-11T07:49:43.510Z,99440.68
2018-03-11T07:52:11.816Z,99437.53
2018-03-11T07:54:40.146Z,99431.23
2018-03-11T07:57:08.459Z,99426.05
2018-03-11T07:59:36.752Z,99426.89
2018-03-11T08:02:05.086Z,99421.39
2018-03-11T08:04:34.172Z,99408.72
2018-03-11T08:07:03.262Z,99401.88
2018-03-11T08:09:31.582Z,99398.04
2018-03-11T08:11:59.874Z,99380.80
2018-03-11T08:14:28.171Z,99359.97
2018-03-11T08:16:56.480Z,99353.23
2018-03-11T08:19:24.781Z,99357.65
2018-03-11T08:24:26.105Z,99380.16
2018-03-11T08:26:54.429Z,99380.06
2018-03-11T08:29:23.499Z,99377.57
2018-03-11T08:31:51.965Z,99369.07
2018-03-11T08:34:20.270Z,99373.41
2018-03-11T08:36:48.600Z,99368.11
2018-03-11T08:39:16.908Z,99363.63
2018-03-11T08:41:45.221Z,99360.59
2018-03-11T08:44:13.682Z,99373.16
2018-03-11T08:46:42.011Z,99368.05
2018-03-11T08:49:11.102Z,99367.61
2018-03-11T08:51:40.180Z,99369.97
2018-03-11T08:54:08.529Z,99370.33
2018-03-11T08:56:36.850Z,99368.72
2018-03-11T08:59:05.170Z,99358.95
2018-03-11T09:01:33.491Z,99352.41
2018-03-11T09:04:01.804Z,99354.08
2018-03-11T09:06:30.128Z,99351.81
2018-03-11T09:08:58.505Z,99352.02
2018-03-11T09:11:26.916Z,99349.66
2018-03-11T09:13:55.227Z,99348.09
2018-03-11T09:16:23.547Z,99344.52
2018-03-11T09:18:52.645Z,99345.56
2018-03-11T09:21:21.774Z,99340.74
2018-03-11T09:23:50.117Z,99334.09
2018-03-11T09:26:19.223Z,99320.56
2018-03-11T09:28:47.567Z,99323.24
2018-03-11T09:31:15.866Z,99330.81
2018-03-11T09:33:44.191Z,99328.55
2018-03-11T09:36:12.503Z,99324.69
2018-03-11T09:38:40.809Z,99323.80
2018-03-11T09:41:09.249Z,99328.50
2018-03-11T09:43:38.290Z,99325.82
2018-03-11T09:46:06.612Z,99325.66
2018-03-11T09:48:34.933Z,99316.59
2018-03-11T09:51:03.250Z,99310.09
2018-03-11T09:53:32.356Z,99298.80
2018-03-11T09:56:01.490Z,99293.08
2018-03-11T09:58:29.787Z,99281.23
2018-03-11T10:00:58.104Z,99279.09
2018-03-11T10:03:26.469Z,99281.88
2018-03-11T10:05:54.786Z,99280.99
2018-03-11T10:10:58.364Z,99284.39
2018-03-11T10:13:26.725Z,99277.93
2018-03-11T10:15:55.068Z,99277.47
2018-03-11T10:18:23.390Z,99278.06
2018-03-11T10:20:51.719Z,99274.53
2018-03-11T10:23:20.056Z,99274.37
2018-03-11T10:25:48.372Z,99282.34
2018-03-11T10:28:16.697Z,99279.00
2018-03-11T10:30:45.787Z,99276.99
2018-03-11T10:33:14.870Z,99270.98
2018-03-11T10:35:43.208Z,99263.43
2018-03-11T10:38:11.562Z,99256.36
2018-03-11T10:40:39.896Z,99254.26
2018-03-11T10:43:08.232Z,99249.13
2018-03-11T10:45:36.570Z,99242.59
2018-03-11T10:48:08.366Z,99243.65
2018-03-11T10:50:37.472Z,99249.46
2018-03-11T10:53:05.784Z,99259.27
2018-03-11T10:55:34.925Z,99253.11
2018-03-11T10:58:03.228Z,99252.30
2018-03-11T11:00:37.704Z,99268.53
2018-03-11T11:03:22.851Z,99263.02
2018-03-11T11:05:51.167Z,99255.66
2018-03-11T11:08:19.503Z,99272.27
2018-03-11T11:10:52.690Z,99275.31
2018-03-11T11:13:21.606Z,99280.94
2018-03-11T11:15:50.349Z,99276.67
2018-03-11T11:18:19.872Z,99286.05
2018-03-11T11:20:48.961Z,99279.05
2018-03-11T11:23:17.286Z,99281.41
2018-03-11T11:25:45.609Z,99287.61
2018-03-11T11:28:13.943Z,99291.34
2018-03-11T11:30:42.266Z,99294.19
2018-03-11T11:33:10.584Z,99305.31
2018-03-11T11:35:39.750Z,99297.48
2018-03-11T11:38:08.068Z,99303.70
2018-03-11T11:40:38.087Z,99304.19
2018-03-11T11:43:06.428Z,99299.58
2018-03-11T11:45:34.742Z,99306.79
2018-03-11T11:48:03.052Z,99293.63
2018-03-11T11:50:31.405Z,99298.24
2018-03-11T11:52:59.724Z,99303.02
2018-03-11T11:55:28.031Z,99316.97
2018-03-11T11:57:56.363Z,99323.02
2018-03-11T12:00:25.459Z,99324.35
2018-03-11T12:02:54.598Z,99342.05
2018-03-11T12:05:22.960Z,99333.57
2018-03-11T12:07:51.258Z,99341.65
2018-03-11T12:10:19.578Z,99343.10
2018-03-11T12:12:47.919Z,99329.63
2018-03-11T12:15:16.262Z,99330.91
2018-03-11T12:17:44.586Z,99342.31
2018-03-11T12:20:13.013Z,99337.19
2018-03-11T12:22:41.351Z,99330.37
2018-03-11T12:25:09.688Z,99327.12
2018-03-11T12:27:38.032Z,99333.27
2018-03-11T12:30:06.517Z,99335.84
2018-03-11T12:32:34.843Z,99324.92
2018-03-11T12:35:03.920Z,99329.45
2018-03-11T12:37:33.020Z,99332.20
2018-03-11T12:40:01.339Z,99333.50
2018-03-11T12:42:30.432Z,99337.34
2018-03-11T12:44:59.522Z,99341.55
2018-03-11T12:47:27.857Z,99345.45
2018-03-11T12:49:56.180Z,99340.77
2018-03-11T12:52:24.520Z,99334.73
2018-03-11T12:54:53.175Z,99341.34
2018-03-11T12:57:22.311Z,99339.45
2018-03-11T12:59:51.097Z,99342.66
2018-03-11T13:02:19.443Z,99339.64
2018-03-11T13:04:48.527Z,99345.55
2018-03-11T13:07:16.845Z,99342.92
2018-03-11T13:09:45.157Z,99345.09
2018-03-11T13:12:13.497Z,99340.92
2018-03-11T13:14:43.314Z,99335.43
2018-03-11T13:17:12.411Z,99349.81
2018-03-11T13:19:41.537Z,99362.16
2018-03-11T13:22:09.977Z,99370.42
2018-03-11T13:24:38.313Z,99368.15
2018-03-11T13:27:06.630Z,99364.90
2018-03-11T13:29:35.673Z,99365.89
2018-03-11T13:32:21.610Z,99369.22
2018-03-11T13:34:49.921Z,99361.75
2018-03-11T13:37:19.013Z,99353.38
2018-03-11T13:40:05.676Z,99356.27
2018-03-11T13:42:33.981Z,99356.39
2018-03-11T13:45:20.259Z,99368.14
2018-03-11T13:47:48.586Z,99374.71
2018-03-11T13:50:16.905Z,99375.66
2018-03-11T13:53:03.102Z,99381.73
2018-03-11T13:55:31.523Z,99377.46
2018-03-11T13:58:17.301Z,99371.09
2018-03-11T14:00:45.619Z,99381.33
2018-03-11T14:03:13.978Z,99378.50
2018-03-11T14:05:43.058Z,99380.05
2018-03-11T14:08:11.432Z,99384.02
2018-03-11T14:10:39.934Z,99382.30
2018-03-11T14:13:08.251Z,99376.70
2018-03-11T14:15:36.594Z,99366.46
2018-03-11T14:18:04.973Z,99365.66
2018-03-11T14:20:33.316Z,99350.87
2018-03-11T14:23:01.629Z,99359.91
2018-03-11T14:25:29.951Z,99353.87
2018-03-11T14:27:58.348Z,99348.72
2018-03-11T14:30:26.825Z,99345.50
2018-03-11T14:32:55.177Z,99350.28
2018-03-11T14:35:23.488Z,99353.35
2018-03-11T14:37:52.449Z,99349.31
2018-03-11T14:40:20.777Z,99354.84
2018-03-11T14:42:49.101Z,99356.89
2018-03-11T14:45:17.444Z,99351.51
2018-03-11T14:47:45.764Z,99355.38
2018-03-11T14:50:14.107Z,99346.63
2018-03-11T14:52:42.510Z,99358.94
2018-03-11T14:55:12.599Z,99354.15
2018-03-11T14:57:41.831Z,99348.70
2018-03-11T15:00:10.182Z,99352.08
2018-03-11T15:02:39.307Z,99353.65
2018-03-11T15:05:07.646Z,99359.97
2018-03-11T15:07:35.971Z,99368.41
2018-03-11T15:10:04.332Z,99378.81
2018-03-11T15:12:33.456Z,99388.79
2018-03-11T15:15:01.786Z,99384.98
2018-03-11T15:17:30.117Z,99379.01
2018-03-11T15:19:58.443Z,99378.80
2018-03-11T15:22:26.758Z,99381.06
2018-03-11T15:24:55.192Z,99382.75
2018-03-11T15:27:23.489Z,99395.82
2018-03-11T15:29:51.815Z,99397.78
2018-03-11T15:32:20.893Z,99398.30
2018-03-11T15:34:49.215Z,99397.48
2018-03-11T15:37:17.573Z,99388.78
2018-03-11T15:39:45.920Z,99378.88
2018-03-11T15:42:14.257Z,99372.44
2018-03-11T15:44:42.696Z,99365.55
2018-03-11T15:47:11.070Z,99374.69
2018-03-11T15:49:39.448Z,99368.86
2018-03-11T15:52:07.734Z,99368.26
2018-03-11T15:54:36.111Z,99360.74
2018-03-11T15:57:04.451Z,99357.94
2018-03-11T15:59:32.883Z,99372.48
2018-03-11T16:02:01.222Z,99376.74
2018-03-11T16:04:29.518Z,99384.51
2018-03-11T16:06:57.931Z,99378.95
2018-03-11T16:09:26.263Z,99370.05
2018-03-11T16:11:54.631Z,99354.86
2018-03-11T16:14:22.987Z,99345.52
2018-03-11T16:16:52.100Z,99345.08
2018-03-11T16:19:20.448Z,99340.23
2018-03-11T16:21:48.820Z,99348.47
2018-03-11T16:24:28.280Z,99348.82
2018-03-11T16:26:46.252Z,99346.89
2018-03-11T16:29:14.594Z,99341.16
2018-03-11T16:31:43.038Z,99350.72
2018-03-11T16:34:11.366Z,99356.31
2018-03-11T16:36:39.692Z,99368.12
2018-03-11T16:39:08.810Z,99381.20
2018-03-11T16:41:38.061Z,99385.66
2018-03-11T16:44:06.395Z,99384.28
2018-03-11T16:46:34.754Z,99387.04
2018-03-11T16:49:03.093Z,99388.06
2018-03-11T16:51:31.443Z,99390.02
2018-03-11T16:53:59.776Z,99391.39
2018-03-11T16:56:28.900Z,99382.70
2018-03-11T16:58:57.238Z,99377.33
2018-03-11T17:01:25.586Z,99380.62
2018-03-11T17:03:55.124Z,99379.31
2018-03-11T17:06:23.498Z,99388.31
2018-03-11T17:08:51.829Z,99386.55
2018-03-11T17:11:20.148Z,99387.60
2018-03-11T17:13:49.247Z,99382.17
2018-03-11T17:16:18.402Z,99381.18
2018-03-11T17:18:46.734Z,99373.44
2018-03-11T17:21:15.065Z,99377.11
2018-03-11T17:23:43.392Z,99373.99
2018-03-11T17:26:13.375Z,99385.19
2018-03-11T17:28:41.720Z,99389.61
2018-03-11T17:31:10.081Z,99389.97
2018-03-11T17:33:38.405Z,99388.30
2018-03-11T17:36:06.704Z,99384.97
2018-03-11T17:38:35.064Z,99380.50
2018-03-11T17:41:03.406Z,99373.33
2018-03-11T17:43:32.530Z,99375.56
2018-03-11T17:46:00.880Z,99371.62
2018-03-11T17:48:29.998Z,99375.84
2018-03-11T17:50:59.100Z,99373.41
2018-03-11T17:53:27.423Z,99376.83
2018-03-11T17:55:55.757Z,99381.80
2018-03-11T17:58:24.839Z,99379.41
2018-03-11T18:00:54.460Z,99367.69
2018-03-11T18:03:23.840Z,99366.33
2018-03-11T18:05:54.726Z,99375.34
2018-03-11T18:08:23.200Z,99378.23
2018-03-11T18:10:51.625Z,99379.00
2018-03-11T18:13:20.128Z,99379.88
2018-03-11T18:15:48.469Z,99379.10
2018-03-11T18:18:17.983Z,99384.41
2018-03-11T18:20:46.459Z,99383.66
2018-03-11T18:23:15.744Z,99382.06
2018-03-11T18:25:45.021Z,99377.34
2018-03-11T18:28:13.344Z,99375.94
2018-03-11T18:30:41.931Z,99381.70
2018-03-11T18:33:10.452Z,99383.55
2018-03-11T18:35:39.606Z,99381.13
2018-03-11T18:38:08.860Z,99380.20
2018-03-11T18:40:37.190Z,99383.09
2018-03-11T18:43:06.392Z,99382.34
2018-03-11T18:45:35.762Z,99380.42
2018-03-11T18:48:04.191Z,99381.13
2018-03-11T18:50:33.287Z,99377.84
2018-03-11T18:53:01.644Z,99372.91
2018-03-11T18:55:30.188Z,99373.27
2018-03-11T18:57:58.794Z,99376.70
2018-03-11T19:00:27.398Z,99372.15
2018-03-11T19:02:55.729Z,99374.64
2018-03-11T19:05:24.265Z,99373.02
2018-03-11T19:07:52.599Z,99377.29
2018-03-11T19:10:21.194Z,99366.72
2018-03-11T19:12:49.788Z,99372.86
2018-03-11T19:15:18.152Z,99371.05
2018-03-11T19:17:47.573Z,99366.99
2018-03-11T19:20:15.927Z,99363.04
2018-03-11T19:22:45.362Z,99365.30
2018-03-11T19:25:19.149Z,99363.02
2018-03-11T19:27:47.492Z,99365.11
2018-03-11T19:30:15.810Z,99364.30
2018-03-11T19:32:44.963Z,99364.12
2018-03-11T19:35:13.298Z,99372.84
2018-03-11T19:37:42.371Z,99367.45
2018-03-11T19:40:10.721Z,99369.70
2018-03-11T19:42:39.028Z,99355.80
2018-03-11T19:45:07.338Z,99358.35
2018-03-11T19:47:36.415Z,99351.48
2018-03-11T19:50:04.797Z,99346.31
2018-03-11T19:52:33.113Z,99340.36
2018-03-11T19:55:02.200Z,99344.72
2018-03-11T19:57:31.344Z,99336.77
2018-03-11T19:59:59.691Z,99334.52
2018-03-11T20:02:28.780Z,99331.31
2018-03-11T20:04:57.094Z,99331.42
2018-03-11T20:07:25.399Z,99324.69
2018-03-11T20:09:53.705Z,99326.66
2018-03-11T20:12:22.014Z,99326.72
2018-03-11T20:14:51.101Z,99332.41
2018-03-11T20:17:19.425Z,99319.84
2018-03-11T20:19:47.737Z,99322.14
2018-03-11T20:22:16.069Z,99315.08
2018-03-11T20:24:45.135Z,99318.89
2018-03-11T20:27:13.617Z,99321.69
2018-03-11T20:29:41.917Z,99321.17
2018-03-11T20:32:10.247Z,99328.70
2018-03-11T20:34:38.538Z,99326.90
2018-03-11T20:37:06.869Z,99325.82
2018-03-11T20:39:35.947Z,99325.34
2018-03-11T20:42:04.254Z,99329.45
2018-03-11T20:44:33.334Z,99328.92
2018-03-11T20:47:01.714Z,99326.73
2018-03-11T20:49:30.035Z,99326.33
2018-03-11T20:51:58.341Z,99325.92
2018-03-11T20:54:26.759Z,99323.97
2018-03-11T20:56:55.081Z,99327.52
2018-03-11T20:59:23.387Z,99325.01
2018-03-11T21:01:51.774Z,99332.73
2018-03-11T21:04:20.079Z,99325.56
2018-03-11T21:06:48.404Z,99328.48
2018-03-11T21:09:17.476Z,99329.22
2018-03-11T21:11:45.778Z,99331.36
2018-03-11T21:14:15.221Z,99329.55
2018-03-11T21:16:43.525Z,99326.30
2018-03-11T21:19:11.837Z,99333.68
2018-03-11T21:21:40.303Z,99334.37
2018-03-11T21:24:08.620Z,99327.86
2018-03-11T21:26:37.697Z,99328.27
2018-03-11T21:29:06.010Z,99333.77
2018-03-11T21:31:35.107Z,99331.52
2018-03-11T21:34:04.190Z,99327.42
2018-03-11T21:36:32.508Z,99332.68
2018-03-11T21:39:00.821Z,99328.77
2018-03-11T21:41:29.897Z,99329.47
2018-03-11T21:43:58.245Z,99327.41
2018-03-11T21:46:27.330Z,99329.77
2018-03-11T21:48:55.645Z,99324.67
2018-03-11T21:51:23.968Z,99325.78
2018-03-11T21:53:52.319Z,99327.82
2018-03-11T21:56:20.631Z,99318.41
2018-03-11T21:58:48.947Z,99323.73
2018-03-11T22:01:17.269Z,99316.86
2018-03-11T22:03:45.654Z,99319.22
2018-03-11T22:06:14.015Z,99312.68
2018-03-11T22:08:43.092Z,99309.34
2018-03-11T22:11:11.395Z,99311.95
2018-03-11T22:13:40.717Z,99305.24
2018-03-11T22:16:09.021Z,99305.45
2018-03-11T22:18:37.337Z,99306.13
2018-03-11T22:21:05.647Z,99303.59
2018-03-11T22:23:34.740Z,99296.09
2018-03-11T22:26:03.059Z,99295.66
2018-03-11T22:28:31.371Z,99290.64
2018-03-11T22:30:59.693Z,99300.39
2018-03-11T22:33:28.781Z,99298.71
2018-03-11T22:35:57.853Z,99301.69
2018-03-11T22:38:26.157Z,99303.45
2018-03-11T22:40:54.485Z,99306.94
2018-03-11T22:43:22.797Z,99300.19
2018-03-11T22:45:51.101Z,99298.22
2018-03-11T22:48:20.195Z,99303.16
2018-03-11T22:50:48.499Z,99299.61
2018-03-11T22:53:17.591Z,99308.12
2018-03-11T22:55:46.669Z,99304.35
2018-03-11T22:58:14.972Z,99307.80
2018-03-11T23:00:44.060Z,99303.16
2018-03-11T23:03:12.375Z,99300.45
2018-03-11T23:05:40.708Z,99306.98
2018-03-11T23:08:09.045Z,99302.02
2018-03-11T23:10:37.398Z,99311.12
2018-03-11T23:13:06.465Z,99304.61
2018-03-11T23:15:34.807Z,99297.59
2018-03-11T23:18:03.125Z,99295.25
2018-03-11T23:20:31.442Z,99288.08
2018-03-11T23:23:00.515Z,99290.34
2018-03-11T23:25:28.875Z,99287.94
2018-03-11T23:27:57.200Z,99296.71
2018-03-11T23:30:25.516Z,99290.74
2018-03-11T23:32:53.813Z,99293.06
2018-03-11T23:35:22.124Z,99286.98
2018-03-11T23:37:50.445Z,99285.59
2018-03-11T23:40:19.528Z,99288.48
2018-03-11T23:42:47.865Z,99279.64
2018-03-11T23:45:16.176Z,99281.20
2018-03-11T23:47:44.501Z,99271.20
2018-03-11T23:50:12.816Z,99267.47
2018-03-11T23:52:41.133Z,99266.41
2018-03-11T23:55:09.465Z,99268.82
2018-03-11T23:57:37.787Z,99263.93
